sensor_id;sensor_type;location;lat;lon;timestamp;pressure;altitude;pressure_sealevel;temperature;humidity
46955;BME280;32708;51.212;6.788;2023-08-08T00:00:00;100919.69;;;19.29;100.00
46955;BME280;32708;51.212;6.788;2023-08-08T00:02:26;100919.53;;;18.91;100.00
46955;BME280;32708;51.212;6.788;2023-08-08T00:04:53;100911.22;;;18.91;100.00
46955;BME280;32708;51.212;6.788;2023-08-08T00:07:19;100921.75;;;18.82;100.00
46955;BME280;32708;51.212;6.788;2023-08-08T00:09:45;100909.84;;;19.31;100.00
46955;BME280;32708;51.212;6.788;2023-08-08T00:12:11;100904.31;;;19.31;100.00
46955;BME280;32708;51.212;6.788;2023-08-08T00:14:37;100907.47;;;19.03;100.00
46955;BME280;32708;51.212;6.788;2023-08-08T00:17:04;100897.63;;;18.79;100.00
46955;BME280;32708;51.212;6.788;2023-08-08T00:19:30;100893.34;;;18.85;100.00
46955;BME280;32708;51.212;6.788;2023-08-08T00:21:56;100896.91;;;18.63;100.00
46955;BME280;32708;51.212;6.788;2023-08-08T00:24:23;100898.06;;;18.16;100.00
46955;BME280;32708;51.212;6.788;2023-08-08T00:26:49;100896.66;;;18.49;100.00
46955;BME280;32708;51.212;6.788;2023-08-08T00:29:15;100891.38;;;18.63;100.00
46955;BME280;32708;51.212;6.788;2023-08-08T00:31:41;100885.91;;;18.89;100.00
46955;BME280;32708;51.212;6.788;2023-08-08T00:34:07;100909.13;;;18.16;100.00
46955;BME280;32708;51.212;6.788;2023-08-08T00:36:33;100897.13;;;18.51;100.00
46955;BME280;32708;51.212;6.788;2023-08-08T00:39:00;100899.25;;;18.61;100.00
46955;BME280;32708;51.212;6.788;2023-08-08T00:41:26;100898.38;;;18.57;100.00
46955;BME280;32708;51.212;6.788;2023-08-08T00:43:52;100896.34;;;18.73;100.00
46955;BME280;32708;51.212;6.788;2023-08-08T00:46:22;100896.53;;;18.41;100.00
46955;BME280;32708;51.212;6.788;2023-08-08T00:48:52;100897.03;;;18.24;100.00
46955;BME280;32708;51.212;6.788;2023-08-08T00:51:21;100891.53;;;18.05;100.00
46955;BME280;32708;51.212;6.788;2023-08-08T00:53:49;100894.56;;;18.19;100.00
46955;BME280;32708;51.212;6.788;2023-08-08T00:56:17;100896.03;;;18.13;100.00
46955;BME280;32708;51.212;6.788;2023-08-08T00:58:44;100891.91;;;17.84;100.00
46955;BME280;32708;51.212;6.788;2023-08-08T01:01:17;100890.09;;;17.92;100.00
46955;BME280;32708;51.212;6.788;2023-08-08T01:03:45;100906.59;;;18.07;100.00
46955;BME280;32708;51.212;6.788;2023-08-08T01:06:27;100890.59;;;17.78;100.00
46955;BME280;32708;51.212;6.788;2023-08-08T01:09:03;100898.75;;;17.71;100.00
46955;BME280;32708;51.212;6.788;2023-08-08T01:11:36;100901.00;;;17.84;100.00
46955;BME280;32708;51.212;6.788;2023-08-08T01:14:07;100909.94;;;17.97;100.00
46955;BME280;32708;51.212;6.788;2023-08-08T01:16:34;100896.09;;;18.17;100.00
46955;BME280;32708;51.212;6.788;2023-08-08T01:19:01;100888.28;;;17.99;100.00
46955;BME280;32708;51.212;6.788;2023-08-08T01:21:37;100887.44;;;18.18;100.00
46955;BME280;32708;51.212;6.788;2023-08-08T01:24:24;100881.63;;;18.23;100.00
46955;BME280;32708;51.212;6.788;2023-08-08T01:26:56;100892.53;;;17.74;100.00
46955;BME280;32708;51.212;6.788;2023-08-08T01:29:22;100882.69;;;17.96;100.00
46955;BME280;32708;51.212;6.788;2023-08-08T01:31:49;100889.31;;;17.91;100.00
46955;BME280;32708;51.212;6.788;2023-08-08T01:34:16;100895.66;;;17.37;100.00
46955;BME280;32708;51.212;6.788;2023-08-08T01:36:51;100897.72;;;17.59;100.00
46955;BME280;32708;51.212;6.788;2023-08-08T01:39:30;100890.03;;;17.88;100.00
46955;BME280;32708;51.212;6.788;2023-08-08T01:42:00;100884.84;;;17.67;100.00
46955;BME280;32708;51.212;6.788;2023-08-08T01:44:29;100885.75;;;17.71;100.00
46955;BME280;32708;51.212;6.788;2023-08-08T01:46:57;100885.03;;;17.74;100.00
46955;BME280;32708;51.212;6.788;2023-08-08T01:49:23;100885.75;;;17.71;100.00
46955;BME280;32708;51.212;6.788;2023-08-08T01:51:49;100874.34;;;17.18;100.00
46955;BME280;32708;51.212;6.788;2023-08-08T01:54:17;100877.41;;;17.32;100.00
46955;BME280;32708;51.212;6.788;2023-08-08T01:56:43;100864.38;;;17.68;100.00
46955;BME280;32708;51.212;6.788;2023-08-08T01:59:09;100869.81;;;17.45;100.00
46955;BME280;32708;51.212;6.788;2023-08-08T02:01:35;100860.28;;;17.62;100.00
46955;BME280;32708;51.212;6.788;2023-08-08T02:04:02;100863.94;;;17.66;100.00
46955;BME280;32708;51.212;6.788;2023-08-08T02:06:28;100859.13;;;17.63;100.00
46955;BME280;32708;51.212;6.788;2023-08-08T02:08:56;100854.75;;;17.62;100.00
46955;BME280;32708;51.212;6.788;2023-08-08T02:11:22;100857.22;;;17.28;100.00
46955;BME280;32708;51.212;6.788;2023-08-08T02:13:49;100858.38;;;17.27;100.00
46955;BME280;32708;51.212;6.788;2023-08-08T02:16:15;100862.03;;;17.31;100.00
46955;BME280;32708;51.212;6.788;2023-08-08T02:18:41;100846.94;;;17.83;100.00
46955;BME280;32708;51.212;6.788;2023-08-08T02:21:08;100847.69;;;17.80;100.00
46955;BME280;32708;51.212;6.788;2023-08-08T02:23:35;100848.03;;;17.59;100.00
46955;BME280;32708;51.212;6.788;2023-08-08T02:26:01;100844.16;;;17.64;100.00
46955;BME280;32708;51.212;6.788;2023-08-08T02:28:28;100846.63;;;17.50;100.00
46955;BME280;32708;51.212;6.788;2023-08-08T02:30:54;100839.56;;;17.33;100.00
46955;BME280;32708;51.212;6.788;2023-08-08T02:33:21;100845.25;;;17.40;100.00
46955;BME280;32708;51.212;6.788;2023-08-08T02:35:47;100846.91;;;17.25;100.00
46955;BME280;32708;51.212;6.788;2023-08-08T02:38:13;100838.56;;;17.60;100.00
46955;BME280;32708;51.212;6.788;2023-08-08T02:40:40;100837.25;;;17.54;100.00
46955;BME280;32708;51.212;6.788;2023-08-08T02:43:07;100840.63;;;17.44;100.00
46955;BME280;32708;51.212;6.788;2023-08-08T02:45:35;100834.72;;;17.65;100.00
46955;BME280;32708;51.212;6.788;2023-08-08T02:48:01;100831.81;;;17.77;100.00
46955;BME280;32708;51.212;6.788;2023-08-08T02:50:27;100826.22;;;17.54;100.00
46955;BME280;32708;51.212;6.788;2023-08-08T02:52:53;100822.53;;;17.47;100.00
46955;BME280;32708;51.212;6.788;2023-08-08T02:55:23;100840.34;;;17.14;100.00
46955;BME280;32708;51.212;6.788;2023-08-08T02:57:51;100837.06;;;17.44;100.00
46955;BME280;32708;51.212;6.788;2023-08-08T03:00:17;100826.94;;;17.32;100.00
46955;BME280;32708;51.212;6.788;2023-08-08T03:02:47;100823.38;;;17.70;100.00
46955;BME280;32708;51.212;6.788;2023-08-08T03:05:15;100822.16;;;17.48;100.00
46955;BME280;32708;51.212;6.788;2023-08-08T03:07:41;100836.22;;;17.04;100.00
46955;BME280;32708;51.212;6.788;2023-08-08T03:10:08;100825.88;;;17.37;100.00
46955;BME280;32708;51.212;6.788;2023-08-08T03:12:35;100829.34;;;17.33;100.00
46955;BME280;32708;51.212;6.788;2023-08-08T03:15:04;100822.38;;;17.40;100.00
46955;BME280;32708;51.212;6.788;2023-08-08T03:17:31;100817.66;;;17.59;100.00
46955;BME280;32708;51.212;6.788;2023-08-08T03:19:57;100819.63;;;17.40;100.00
46955;BME280;32708;51.212;6.788;2023-08-08T03:22:24;100822.16;;;17.29;100.00
46955;BME280;32708;51.212;6.788;2023-08-08T03:24:52;100816.13;;;17.23;100.00
46955;BME280;32708;51.212;6.788;2023-08-08T03:27:18;100825.38;;;16.96;100.00
46955;BME280;32708;51.212;6.788;2023-08-08T03:29:48;100818.78;;;17.00;100.00
46955;BME280;32708;51.212;6.788;2023-08-08T03:32:16;100827.84;;;17.36;100.00
46955;BME280;32708;51.212;6.788;2023-08-08T03:34:42;100821.66;;;17.23;100.00
46955;BME280;32708;51.212;6.788;2023-08-08T03:37:10;100816.34;;;17.15;100.00
46955;BME280;32708;51.212;6.788;2023-08-08T03:39:36;100808.44;;;17.32;100.00
46955;BME280;32708;51.212;6.788;2023-08-08T03:42:02;100817.75;;;17.44;100.00
46955;BME280;32708;51.212;6.788;2023-08-08T03:44:29;100822.38;;;17.40;100.00
46955;BME280;32708;51.212;6.788;2023-08-08T03:46:56;100830.63;;;17.20;100.00
46955;BME280;32708;51.212;6.788;2023-08-08T03:49:22;100833.00;;;17.02;100.00
46955;BME280;32708;51.212;6.788;2023-08-08T03:51:48;100833.97;;;17.49;100.00
46955;BME280;32708;51.212;6.788;2023-08-08T03:54:15;100829.06;;;17.39;100.00
46955;BME280;32708;51.212;6.788;2023-08-08T03:56:41;100827.31;;;17.50;100.00
46955;BME280;32708;51.212;6.788;2023-08-08T03:59:08;100827.28;;;17.69;100.00
46955;BME280;32708;51.212;6.788;2023-08-08T04:01:36;100812.50;;;17.39;100.00
46955;BME280;32708;51.212;6.788;2023-08-08T04:04:04;100826.56;;;17.33;100.00
46955;BME280;32708;51.212;6.788;2023-08-08T04:06:31;100821.63;;;17.43;100.00
46955;BME280;32708;51.212;6.788;2023-08-08T04:08:57;100830.00;;;16.92;100.00
46955;BME280;32708;51.212;6.788;2023-08-08T04:11:23;100824.25;;;17.16;100.00
46955;BME280;32708;51.212;6.788;2023-08-08T04:13:50;100823.09;;;17.37;100.00
46955;BME280;32708;51.212;6.788;2023-08-08T04:16:17;100815.16;;;17.35;100.00
46955;BME280;32708;51.212;6.788;2023-08-08T04:18:43;100815.38;;;17.26;100.00
46955;BME280;32708;51.212;6.788;2023-08-08T04:21:09;100812.22;;;17.44;100.00
46955;BME280;32708;51.212;6.788;2023-08-08T04:23:35;100818.44;;;17.21;100.00
46955;BME280;32708;51.212;6.788;2023-08-08T04:26:01;100819.97;;;17.38;100.00
46955;BME280;32708;51.212;6.788;2023-08-08T04:28:29;100814.59;;;17.26;100.00
46955;BME280;32708;51.212;6.788;2023-08-08T04:30:55;100824.25;;;17.36;100.00
46955;BME280;32708;51.212;6.788;2023-08-08T04:33:23;100812.13;;;17.21;100.00
46955;BME280;32708;51.212;6.788;2023-08-08T04:35:50;100807.97;;;17.50;100.00
46955;BME280;32708;51.212;6.788;2023-08-08T04:38:16;100818.66;;;17.13;100.00
46955;BME280;32708;51.212;6.788;2023-08-08T04:40:42;100814.19;;;17.43;100.00
46955;BME280;32708;51.212;6.788;2023-08-08T04:43:08;100810.59;;;17.43;100.00
46955;BME280;32708;51.212;6.788;2023-08-08T04:45:34;100819.41;;;17.29;100.00
46955;BME280;32708;51.212;6.788;2023-08-08T04:48:00;100813.88;;;17.48;100.00
46955;BME280;32708;51.212;6.788;2023-08-08T04:50:26;100823.88;;;17.18;100.00
46955;BME280;32708;51.212;6.788;2023-08-08T04:52:52;100798.69;;;17.58;100.00
46955;BME280;32708;51.212;6.788;2023-08-08T04:55:18;100801.00;;;17.75;100.00
46955;BME280;32708;51.212;6.788;2023-08-08T04:57:45;100802.38;;;17.85;100.00
46955;BME280;32708;51.212;6.788;2023-08-08T05:00:14;100792.94;;;17.86;100.00
46955;BME280;32708;51.212;6.788;2023-08-08T05:02:41;100799.41;;;17.55;100.00
46955;BME280;32708;51.212;6.788;2023-08-08T05:05:07;100791.59;;;17.38;100.00
46955;BME280;32708;51.212;6.788;2023-08-08T05:07:35;100792.59;;;17.29;100.00
46955;BME280;32708;51.212;6.788;2023-08-08T05:10:04;100786.91;;;17.61;100.00
46955;BME280;32708;51.212;6.788;2023-08-08T05:12:30;100805.88;;;17.63;100.00
46955;BME280;32708;51.212;6.788;2023-08-08T05:14:56;100794.94;;;17.70;100.00
46955;BME280;32708;51.212;6.788;2023-08-08T05:17:22;100796.44;;;18.06;100.00
46955;BME280;32708;51.212;6.788;2023-08-08T05:19:48;100804.00;;;17.47;100.00
46955;BME280;32708;51.212;6.788;2023-08-08T05:22:14;100805.88;;;17.82;100.00
46955;BME280;32708;51.212;6.788;2023-08-08T05:24:40;100803.19;;;18.08;100.00
46955;BME280;32708;51.212;6.788;2023-08-08T05:27:06;100800.28;;;17.78;100.00
46955;BME280;32708;51.212;6.788;2023-08-08T05:29:33;100802.75;;;18.06;100.00
46955;BME280;32708;51.212;6.788;2023-08-08T05:32:00;100811.19;;;17.52;100.00
46955;BME280;32708;51.212;6.788;2023-08-08T05:34:26;100803.78;;;18.21;100.00
46955;BME280;32708;51.212;6.788;2023-08-08T05:36:52;100802.16;;;17.94;100.00
46955;BME280;32708;51.212;6.788;2023-08-08T05:39:18;100803.88;;;18.25;100.00
46955;BME280;32708;51.212;6.788;2023-08-08T05:41:45;100799.16;;;18.02;100.00
46955;BME280;32708;51.212;6.788;2023-08-08T05:44:11;100807.41;;;17.60;100.00
46955;BME280;32708;51.212;6.788;2023-08-08T05:46:37;100805.84;;;18.24;100.00
46955;BME280;32708;51.212;6.788;2023-08-08T05:49:03;100807.03;;;17.81;100.00
46955;BME280;32708;51.212;6.788;2023-08-08T05:51:29;100810.72;;;17.50;100.00
46955;BME280;32708;51.212;6.788;2023-08-08T05:53:55;100804.25;;;18.23;100.00
46955;BME280;32708;51.212;6.788;2023-08-08T05:56:21;100801.06;;;18.48;100.00
46955;BME280;32708;51.212;6.788;2023-08-08T05:58:48;100802.31;;;18.27;100.00
46955;BME280;32708;51.212;6.788;2023-08-08T06:01:14;100808.19;;;18.22;100.00
46955;BME280;32708;51.212;6.788;2023-08-08T06:03:40;100809.44;;;18.05;100.00
46955;BME280;32708;51.212;6.788;2023-08-08T06:06:06;100814.84;;;18.21;100.00
46955;BME280;32708;51.212;6.788;2023-08-08T06:08:33;100816.38;;;18.41;100.00
46955;BME280;32708;51.212;6.788;2023-08-08T06:10:59;100816.59;;;18.29;100.00
46955;BME280;32708;51.212;6.788;2023-08-08T06:13:25;100815.84;;;18.09;100.00
46955;BME280;32708;51.212;6.788;2023-08-08T06:15:52;100820.44;;;17.79;100.00
46955;BME280;32708;51.212;6.788;2023-08-08T06:18:18;100814.16;;;17.82;100.00
46955;BME280;32708;51.212;6.788;2023-08-08T06:20:45;100821.88;;;18.64;100.00
46955;BME280;32708;51.212;6.788;2023-08-08T06:23:11;100825.00;;;18.63;100.00
46955;BME280;32708;51.212;6.788;2023-08-08T06:25:37;100831.81;;;18.20;100.00
46955;BME280;32708;51.212;6.788;2023-08-08T06:28:05;100832.28;;;18.25;100.00
46955;BME280;32708;51.212;6.788;2023-08-08T06:30:32;100831.38;;;18.18;100.00
46955;BME280;32708;51.212;6.788;2023-08-08T06:32:58;100833.09;;;18.03;100.00
46955;BME280;32708;51.212;6.788;2023-08-08T06:35:24;100835.47;;;18.27;100.00
46955;BME280;32708;51.212;6.788;2023-08-08T06:37:50;100835.00;;;18.45;100.00
46955;BME280;32708;51.212;6.788;2023-08-08T06:40:17;100836.28;;;18.05;100.00
46955;BME280;32708;51.212;6.788;2023-08-08T06:42:43;100839.97;;;18.35;100.00
46955;BME280;32708;51.212;6.788;2023-08-08T06:45:09;100831.00;;;18.19;100.00
46955;BME280;32708;51.212;6.788;2023-08-08T06:47:36;100839.53;;;18.10;100.00
46955;BME280;32708;51.212;6.788;2023-08-08T06:50:03;100838.13;;;18.66;100.00
46955;BME280;32708;51.212;6.788;2023-08-08T06:52:32;100833.34;;;18.17;100.00
46955;BME280;32708;51.212;6.788;2023-08-08T06:54:58;100834.63;;;18.00;100.00
46955;BME280;32708;51.212;6.788;2023-08-08T06:57:24;100833.53;;;18.51;100.00
46955;BME280;32708;51.212;6.788;2023-08-08T06:59:51;100831.53;;;18.74;100.00
46955;BME280;32708;51.212;6.788;2023-08-08T07:02:19;100831.34;;;18.86;100.00
46955;BME280;32708;51.212;6.788;2023-08-08T07:04:46;100824.53;;;18.57;100.00
46955;BME280;32708;51.212;6.788;2023-08-08T07:07:13;100814.09;;;18.96;100.00
46955;BME280;32708;51.212;6.788;2023-08-08T07:09:39;100827.16;;;18.50;100.00
46955;BME280;32708;51.212;6.788;2023-08-08T07:12:05;100821.72;;;18.54;100.00
46955;BME280;32708;51.212;6.788;2023-08-08T07:14:32;100833.41;;;18.43;100.00
46955;BME280;32708;51.212;6.788;2023-08-08T07:16:58;100824.41;;;18.73;100.00
46955;BME280;32708;51.212;6.788;2023-08-08T07:19:24;100819.94;;;19.21;100.00
46955;BME280;32708;51.212;6.788;2023-08-08T07:21:51;100813.53;;;19.47;100.00
46955;BME280;32708;51.212;6.788;2023-08-08T07:24:17;100810.47;;;20.34;100.00
46955;BME280;32708;51.212;6.788;2023-08-08T07:26:44;100808.50;;;19.90;100.00
46955;BME280;32708;51.212;6.788;2023-08-08T07:29:10;100807.06;;;20.07;100.00
46955;BME280;32708;51.212;6.788;2023-08-08T07:31:36;100801.69;;;20.73;100.00
46955;BME280;32708;51.212;6.788;2023-08-08T07:34:02;100803.91;;;20.05;100.00
46955;BME280;32708;51.212;6.788;2023-08-08T07:36:28;100810.81;;;19.17;100.00
46955;BME280;32708;51.212;6.788;2023-08-08T07:38:56;100797.00;;;19.55;100.00
46955;BME280;32708;51.212;6.788;2023-08-08T07:41:27;100794.50;;;19.72;100.00
46955;BME280;32708;51.212;6.788;2023-08-08T07:43:53;100799.72;;;19.81;100.00
46955;BME280;32708;51.212;6.788;2023-08-08T07:46:20;100797.28;;;20.17;100.00
46955;BME280;32708;51.212;6.788;2023-08-08T07:48:46;100802.03;;;20.16;100.00
46955;BME280;32708;51.212;6.788;2023-08-08T07:51:12;100798.97;;;20.80;100.00
46955;BME280;32708;51.212;6.788;2023-08-08T07:53:38;100797.88;;;20.95;100.00
46955;BME280;32708;51.212;6.788;2023-08-08T07:56:05;100799.13;;;20.46;100.00
46955;BME280;32708;51.212;6.788;2023-08-08T07:58:32;100802.88;;;20.24;100.00
46955;BME280;32708;51.212;6.788;2023-08-08T08:00:58;100794.31;;;20.95;100.00
46955;BME280;32708;51.212;6.788;2023-08-08T08:03:26;100800.66;;;20.95;100.00
46955;BME280;32708;51.212;6.788;2023-08-08T08:05:53;100805.75;;;20.86;100.00
46955;BME280;32708;51.212;6.788;2023-08-08T08:08:19;100805.28;;;20.77;100.00
46955;BME280;32708;51.212;6.788;2023-08-08T08:10:47;100806.41;;;20.69;100.00
46955;BME280;32708;51.212;6.788;2023-08-08T08:13:14;100809.16;;;20.17;100.00
46955;BME280;32708;51.212;6.788;2023-08-08T08:15:41;100798.34;;;20.46;100.00
46955;BME280;32708;51.212;6.788;2023-08-08T08:18:07;100808.25;;;20.02;100.00
46955;BME280;32708;51.212;6.788;2023-08-08T08:20:33;100810.16;;;19.95;100.00
46955;BME280;32708;51.212;6.788;2023-08-08T08:22:59;100812.47;;;19.89;100.00
46955;BME280;32708;51.212;6.788;2023-08-08T08:25:26;100819.75;;;20.49;100.00
46955;BME280;32708;51.212;6.788;2023-08-08T08:27:52;100794.41;;;21.20;100.00
46955;BME280;32708;51.212;6.788;2023-08-08T08:30:18;100788.06;;;21.19;100.00
46955;BME280;32708;51.212;6.788;2023-08-08T08:32:45;100792.00;;;21.14;100.00
46955;BME280;32708;51.212;6.788;2023-08-08T08:35:11;100808.19;;;20.43;100.00
46955;BME280;32708;51.212;6.788;2023-08-08T08:37:39;100795.88;;;20.37;100.00
46955;BME280;32708;51.212;6.788;2023-08-08T08:40:06;100810.91;;;20.36;100.00
46955;BME280;32708;51.212;6.788;2023-08-08T08:42:34;100807.81;;;21.03;100.00
46955;BME280;32708;51.212;6.788;2023-08-08T08:45:04;100802.00;;;20.60;100.00
46955;BME280;32708;51.212;6.788;2023-08-08T08:47:33;100805.41;;;20.98;100.00
46955;BME280;32708;51.212;6.788;2023-08-08T08:50:03;100793.63;;;21.15;100.00
46955;BME280;32708;51.212;6.788;2023-08-08T08:52:30;100807.06;;;20.44;100.00
46955;BME280;32708;51.212;6.788;2023-08-08T08:54:57;100803.97;;;21.26;100.00
46955;BME280;32708;51.212;6.788;2023-08-08T08:57:23;100806.81;;;20.67;100.00
46955;BME280;32708;51.212;6.788;2023-08-08T08:59:51;100807.72;;;20.85;100.00
46955;BME280;32708;51.212;6.788;2023-08-08T09:02:18;100804.13;;;20.81;100.00
46955;BME280;32708;51.212;6.788;2023-08-08T09:04:45;100809.63;;;20.26;100.00
46955;BME280;32708;51.212;6.788;2023-08-08T09:07:14;100820.78;;;19.93;100.00
46955;BME280;32708;51.212;6.788;2023-08-08T09:09:46;100808.16;;;20.40;100.00
46955;BME280;32708;51.212;6.788;2023-08-08T09:12:13;100810.53;;;20.41;100.00
46955;BME280;32708;51.212;6.788;2023-08-08T09:14:41;100808.84;;;20.77;100.00
46955;BME280;32708;51.212;6.788;2023-08-08T09:17:14;100809.38;;;20.97;100.00
46955;BME280;32708;51.212;6.788;2023-08-08T09:19:44;100804.22;;;20.99;100.00
46955;BME280;32708;51.212;6.788;2023-08-08T09:22:15;100793.25;;;20.55;100.00
46955;BME280;32708;51.212;6.788;2023-08-08T09:24:42;100800.91;;;20.76;100.00
46955;BME280;32708;51.212;6.788;2023-08-08T09:27:09;100792.09;;;21.29;100.00
46955;BME280;32708;51.212;6.788;2023-08-08T09:29:37;100787.81;;;21.49;100.00
46955;BME280;32708;51.212;6.788;2023-08-08T09:32:05;100782.78;;;22.12;100.00
46955;BME280;32708;51.212;6.788;2023-08-08T09:34:32;100785.88;;;21.71;100.00
46955;BME280;32708;51.212;6.788;2023-08-08T09:37:02;100788.38;;;22.22;100.00
46955;BME280;32708;51.212;6.788;2023-08-08T09:39:29;100782.28;;;23.06;98.01
46955;BME280;32708;51.212;6.788;2023-08-08T09:41:58;100777.59;;;22.67;97.71
46955;BME280;32708;51.212;6.788;2023-08-08T09:44:27;100785.97;;;22.32;100.00
46955;BME280;32708;51.212;6.788;2023-08-08T09:46:56;100777.41;;;23.31;96.77
46955;BME280;32708;51.212;6.788;2023-08-08T09:49:22;100786.75;;;22.14;100.00
46955;BME280;32708;51.212;6.788;2023-08-08T09:51:49;100789.94;;;22.45;100.00
46955;BME280;32708;51.212;6.788;2023-08-08T09:54:17;100785.53;;;22.69;99.25
46955;BME280;32708;51.212;6.788;2023-08-08T09:56:59;100795.47;;;22.70;97.74
46955;BME280;32708;51.212;6.788;2023-08-08T09:59:33;100789.94;;;22.41;100.00
46955;BME280;32708;51.212;6.788;2023-08-08T10:02:39;100799.81;;;21.89;100.00
46955;BME280;32708;51.212;6.788;2023-08-08T10:05:13;100789.16;;;22.23;100.00
46955;BME280;32708;51.212;6.788;2023-08-08T10:07:52;100798.09;;;21.41;100.00
46955;BME280;32708;51.212;6.788;2023-08-08T10:10:27;100803.22;;;21.32;100.00
46955;BME280;32708;51.212;6.788;2023-08-08T10:13:06;100796.84;;;21.28;100.00
46955;BME280;32708;51.212;6.788;2023-08-08T10:15:45;100804.53;;;20.83;100.00
46955;BME280;32708;51.212;6.788;2023-08-08T10:18:26;100791.38;;;21.46;100.00
46955;BME280;32708;51.212;6.788;2023-08-08T10:21:20;100800.09;;;21.45;100.00
46955;BME280;32708;51.212;6.788;2023-08-08T10:24:09;100804.34;;;21.24;100.00
46955;BME280;32708;51.212;6.788;2023-08-08T10:39:14;100826.16;;;19.11;100.00
46955;BME280;32708;51.212;6.788;2023-08-08T10:46:43;100830.75;;;19.30;100.00
46955;BME280;32708;51.212;6.788;2023-08-08T10:53:47;100818.22;;;20.14;100.00
46955;BME280;32708;51.212;6.788;2023-08-08T10:56:36;100824.16;;;20.13;100.00
46955;BME280;32708;51.212;6.788;2023-08-08T10:59:16;100825.72;;;20.51;100.00
46955;BME280;32708;51.212;6.788;2023-08-08T11:01:46;100817.56;;;20.28;100.00
46955;BME280;32708;51.212;6.788;2023-08-08T11:04:15;100820.78;;;20.33;100.00
46955;BME280;32708;51.212;6.788;2023-08-08T11:06:42;100814.44;;;20.33;100.00
46955;BME280;32708;51.212;6.788;2023-08-08T11:09:09;100811.31;;;20.89;100.00
46955;BME280;32708;51.212;6.788;2023-08-08T11:11:38;100823.31;;;20.49;100.00
46955;BME280;32708;51.212;6.788;2023-08-08T11:14:20;100806.38;;;20.61;100.00
46955;BME280;32708;51.212;6.788;2023-08-08T11:16:50;100807.50;;;20.57;100.00
46955;BME280;32708;51.212;6.788;2023-08-08T11:19:18;100802.19;;;20.89;100.00
46955;BME280;32708;51.212;6.788;2023-08-08T11:21:49;100787.47;;;21.76;100.00
46955;BME280;32708;51.212;6.788;2023-08-08T11:24:15;100789.84;;;21.66;100.00
46955;BME280;32708;51.212;6.788;2023-08-08T11:26:44;100770.06;;;22.21;100.00
46955;BME280;32708;51.212;6.788;2023-08-08T11:29:13;100781.13;;;21.86;100.00
46955;BME280;32708;51.212;6.788;2023-08-08T11:31:40;100790.13;;;21.33;100.00
46955;BME280;32708;51.212;6.788;2023-08-08T11:34:08;100787.66;;;21.21;100.00
46955;BME280;32708;51.212;6.788;2023-08-08T11:36:37;100781.72;;;21.19;100.00
46955;BME280;32708;51.212;6.788;2023-08-08T11:39:06;100792.81;;;20.49;100.00
46955;BME280;32708;51.212;6.788;2023-08-08T11:41:38;100786.28;;;20.79;100.00
46955;BME280;32708;51.212;6.788;2023-08-08T11:44:07;100804.47;;;20.25;100.00
46955;BME280;32708;51.212;6.788;2023-08-08T11:46:34;100798.53;;;20.26;100.00
46955;BME280;32708;51.212;6.788;2023-08-08T11:49:05;100797.44;;;20.86;100.00
46955;BME280;32708;51.212;6.788;2023-08-08T11:51:34;100800.94;;;20.28;100.00
46955;BME280;32708;51.212;6.788;2023-08-08T11:54:03;100791.66;;;20.50;100.00
46955;BME280;32708;51.212;6.788;2023-08-08T11:56:34;100794.50;;;20.17;100.00
46955;BME280;32708;51.212;6.788;2023-08-08T11:59:01;100788.78;;;19.99;100.00
46955;BME280;32708;51.212;6.788;2023-08-08T12:01:30;100793.00;;;20.26;100.00
46955;BME280;32708;51.212;6.788;2023-08-08T12:03:56;100800.31;;;20.01;100.00
46955;BME280;32708;51.212;6.788;2023-08-08T12:06:28;100798.59;;;20.30;100.00
46955;BME280;32708;51.212;6.788;2023-08-08T12:08:55;100789.53;;;20.40;100.00
46955;BME280;32708;51.212;6.788;2023-08-08T12:11:21;100809.81;;;20.03;100.00
46955;BME280;32708;51.212;6.788;2023-08-08T12:13:48;100823.25;;;19.01;100.00
46955;BME280;32708;51.212;6.788;2023-08-08T12:16:14;100817.69;;;19.31;100.00
46955;BME280;32708;51.212;6.788;2023-08-08T12:18:42;100820.66;;;19.45;100.00
46955;BME280;32708;51.212;6.788;2023-08-08T12:21:10;100799.66;;;19.77;100.00
46955;BME280;32708;51.212;6.788;2023-08-08T12:23:37;100813.69;;;19.28;100.00
46955;BME280;32708;51.212;6.788;2023-08-08T12:26:06;100803.22;;;20.15;100.00
46955;BME280;32708;51.212;6.788;2023-08-08T12:28:32;100802.00;;;19.72;100.00
46955;BME280;32708;51.212;6.788;2023-08-08T12:31:00;100796.94;;;20.22;100.00
46955;BME280;32708;51.212;6.788;2023-08-08T12:33:30;100784.78;;;20.99;100.00
46955;BME280;32708;51.212;6.788;2023-08-08T12:35:56;100787.84;;;20.76;100.00
46955;BME280;32708;51.212;6.788;2023-08-08T12:38:22;100793.34;;;20.66;100.00
46955;BME280;32708;51.212;6.788;2023-08-08T12:40:49;100777.88;;;21.37;100.00
46955;BME280;32708;51.212;6.788;2023-08-08T12:43:15;100774.00;;;21.99;100.00
46955;BME280;32708;51.212;6.788;2023-08-08T12:45:45;100769.66;;;22.48;100.00
46955;BME280;32708;51.212;6.788;2023-08-08T12:48:12;100766.50;;;22.46;100.00
46955;BME280;32708;51.212;6.788;2023-08-08T12:50:39;100747.41;;;23.57;96.82
46955;BME280;32708;51.212;6.788;2023-08-08T12:53:05;100764.84;;;22.70;100.00
46955;BME280;32708;51.212;6.788;2023-08-08T12:55:31;100763.66;;;21.75;100.00
46955;BME280;32708;51.212;6.788;2023-08-08T12:57:57;100762.91;;;22.49;100.00
46955;BME280;32708;51.212;6.788;2023-08-08T13:00:23;100762.91;;;22.20;100.00
46955;BME280;32708;51.212;6.788;2023-08-08T13:02:49;100758.84;;;21.57;100.00
46955;BME280;32708;51.212;6.788;2023-08-08T13:05:15;100754.94;;;21.73;100.00